San Sebastian de los Reyes, Spain
Current Conditions -  °F | °C
As of 9:00 PM on Monday 24 Nov 2014 (Local Time) from LEMD Reporting Station
Clear Clear  
Wind Chill: 57°   Ceiling: Unl
Heat Index: 57°   Visibility: 6mi
Dew Point: 52°   Wind: 2mph
Humidity: 82%   Direction: 340°NNW
Pressure: 30.06"   Gusts: NA
Location:  40.54°N, 3.62°W
Report Text: LEMD 242000Z 34002KT CAVOK 14/11 Q1018 NOSIG
Loading
Personal Weather Stations






























Interactive Weather Map New forecast layout! Learn more

10-Day Weather Forecast

Advertisements
Track Severe Weather on mobile